createdAt,value
2019-05-07T00:01:03.376Z,24.60
2019-05-07T00:03:32.917Z,28.73
2019-05-07T00:06:02.885Z,25.53
2019-05-07T00:08:32.361Z,26.60
2019-05-07T00:11:22.323Z,27.70
2019-05-07T00:13:52.257Z,27.07
2019-05-07T00:16:22.431Z,25.80
2019-05-07T00:18:52.525Z,27.20
2019-05-07T00:21:23.327Z,26.83
2019-05-07T00:23:53.022Z,24.70
2019-05-07T00:26:22.653Z,26.27
2019-05-07T00:28:52.807Z,26.80
2019-05-07T00:31:23.231Z,26.30
2019-05-07T00:33:52.745Z,28.57
2019-05-07T00:36:29.430Z,28.50
2019-05-07T00:39:18.778Z,26.30
2019-05-07T00:41:58.504Z,28.27
2019-05-07T00:44:57.947Z,30.23
2019-05-07T00:47:27.178Z,28.87
2019-05-07T00:49:58.051Z,27.10
2019-05-07T00:52:27.350Z,28.17
2019-05-07T00:54:56.624Z,28.37
2019-05-07T00:57:25.876Z,29.20
2019-05-07T00:59:55.131Z,29.93
2019-05-07T01:02:24.383Z,29.33
2019-05-07T01:05:13.155Z,29.80
2019-05-07T01:07:42.399Z,28.60
2019-05-07T01:10:12.756Z,29.53
2019-05-07T01:12:42.389Z,28.07
2019-05-07T01:15:12.842Z,29.03
2019-05-07T01:17:42.610Z,30.93
2019-05-07T01:20:12.634Z,29.67
2019-05-07T01:22:42.498Z,28.77
2019-05-07T01:25:12.890Z,29.90
2019-05-07T01:27:42.791Z,29.83
2019-05-07T01:30:32.476Z,30.03
2019-05-07T01:33:20.179Z,31.00
2019-05-07T01:36:03.222Z,29.20
2019-05-07T01:38:34.478Z,30.10
2019-05-07T01:41:03.938Z,31.37
2019-05-07T01:43:33.231Z,31.43
2019-05-07T01:46:03.190Z,30.23
2019-05-07T01:48:32.674Z,31.10
2019-05-07T01:51:03.416Z,30.70
2019-05-07T01:53:32.934Z,31.10
2019-05-07T01:56:03.242Z,31.13
2019-05-07T01:58:33.234Z,31.13
2019-05-07T02:01:22.230Z,30.33
2019-05-07T02:03:55.987Z,29.97
2019-05-07T02:06:43.440Z,30.80
2019-05-07T02:09:23.274Z,29.77
2019-05-07T02:12:02.770Z,32.13
2019-05-07T02:14:32.999Z,29.87
2019-05-07T02:17:02.984Z,31.90
2019-05-07T02:19:52.727Z,31.10
2019-05-07T02:22:22.707Z,31.23
2019-05-07T02:24:52.498Z,31.10
2019-05-07T02:27:22.179Z,32.80
2019-05-07T02:29:52.879Z,29.07
2019-05-07T02:32:24.154Z,30.50
2019-05-07T02:34:54.499Z,28.90
2019-05-07T02:37:29.452Z,30.33
2019-05-07T02:40:16.439Z,31.33
2019-05-07T02:42:45.765Z,28.27
2019-05-07T02:45:19.424Z,28.93
2019-05-07T02:48:08.358Z,29.87
2019-05-07T02:50:43.682Z,30.60
2019-05-07T02:53:17.517Z,28.70
2019-05-07T02:55:47.140Z,28.30
2019-05-07T02:58:16.479Z,26.43
2019-05-07T03:00:45.777Z,28.90
2019-05-07T03:03:15.012Z,28.73
2019-05-07T03:06:03.664Z,28.33
2019-05-07T03:08:33.403Z,25.07
2019-05-07T03:11:03.538Z,26.13
2019-05-07T03:13:33.895Z,27.47
2019-05-07T03:16:03.996Z,27.27
2019-05-07T03:18:33.850Z,26.80
2019-05-07T03:21:19.016Z,26.80
2019-05-07T03:23:55.513Z,26.40
2019-05-07T03:26:26.424Z,26.33
2019-05-07T03:28:57.294Z,26.90
2019-05-07T03:31:35.659Z,28.00
2019-05-07T03:34:15.826Z,25.50
2019-05-07T03:36:47.806Z,26.20
2019-05-07T03:39:14.926Z,26.93
2019-05-07T03:41:45.895Z,27.73
2019-05-07T03:44:19.665Z,28.13
2019-05-07T03:46:59.522Z,27.30
2019-05-07T03:52:13.721Z,26.80
2019-05-07T03:54:43.299Z,26.17
2019-05-07T03:57:15.609Z,26.37
2019-05-07T03:59:43.582Z,26.30
2019-05-07T04:02:14.174Z,27.47
2019-05-07T04:04:43.750Z,27.50
2019-05-07T04:07:14.042Z,27.77
2019-05-07T04:09:43.980Z,25.77
2019-05-07T04:12:13.495Z,26.80
2019-05-07T04:14:43.349Z,29.30
2019-05-07T04:17:17.606Z,28.20
2019-05-07T04:19:44.251Z,30.83
2019-05-07T04:22:14.138Z,30.27
2019-05-07T04:25:04.545Z,29.83
2019-05-07T04:27:35.527Z,27.77
2019-05-07T04:30:06.834Z,26.70
2019-05-07T04:32:43.361Z,26.60
2019-05-07T04:35:16.677Z,28.90
2019-05-07T04:37:45.996Z,29.20
2019-05-07T04:40:15.383Z,28.73
2019-05-07T04:42:44.800Z,30.80
2019-05-07T04:45:14.194Z,29.77
2019-05-07T04:47:47.579Z,28.97
2019-05-07T04:50:34.697Z,27.47
2019-05-07T04:52:47.334Z,29.53
2019-05-07T04:55:16.640Z,29.03
2019-05-07T04:57:45.903Z,29.00
2019-05-07T05:00:16.367Z,29.93
2019-05-07T05:02:53.368Z,29.43
2019-05-07T05:05:23.968Z,27.03
2019-05-07T05:07:53.628Z,27.93
2019-05-07T05:10:23.423Z,29.30
2019-05-07T05:12:53.667Z,26.73
2019-05-07T05:15:32.071Z,28.53
2019-05-07T05:18:02.704Z,27.40
2019-05-07T05:20:42.050Z,27.10
2019-05-07T05:23:18.323Z,27.70
2019-05-07T05:25:47.719Z,28.57
2019-05-07T05:28:16.981Z,27.87
2019-05-07T05:30:47.875Z,27.93
2019-05-07T05:33:17.349Z,27.13
2019-05-07T05:35:46.602Z,27.73
2019-05-07T05:38:22.955Z,27.13
2019-05-07T05:40:52.311Z,25.87
2019-05-07T05:43:28.748Z,26.27
2019-05-07T05:46:02.810Z,25.73
2019-05-07T05:48:33.290Z,23.20
2019-05-07T05:51:11.929Z,27.90
2019-05-07T05:53:49.231Z,28.20
2019-05-07T05:56:23.308Z,27.67
2019-05-07T05:59:02.700Z,28.53
2019-05-07T06:02:07.549Z,28.27
2019-05-07T06:04:42.051Z,25.40
2019-05-07T06:07:31.903Z,25.30
2019-05-07T06:10:12.859Z,25.87
2019-05-07T06:12:45.312Z,28.87
2019-05-07T06:15:34.427Z,27.30
2019-05-07T06:18:17.938Z,26.00
2019-05-07T06:21:00.055Z,27.13
2019-05-07T06:23:56.310Z,23.10
2019-05-07T06:26:25.554Z,22.07
2019-05-07T06:28:55.083Z,22.33
2019-05-07T06:31:24.559Z,22.40
2019-05-07T06:33:53.827Z,22.97
2019-05-07T06:36:23.054Z,21.80
2019-05-07T06:38:54.030Z,21.97
2019-05-07T06:44:17.330Z,22.10
2019-05-07T06:46:46.592Z,20.43
2019-05-07T06:49:15.902Z,15.57
2019-05-07T06:51:47.689Z,15.60
2019-05-07T06:54:16.140Z,18.90
2019-05-07T06:56:45.383Z,16.30
2019-05-07T06:59:16.535Z,18.23
2019-05-07T07:02:05.400Z,22.23
2019-05-07T07:04:38.323Z,19.80
2019-05-07T07:10:02.719Z,14.30
2019-05-07T07:12:33.193Z,17.30
2019-05-07T07:15:02.911Z,18.53
2019-05-07T07:17:32.724Z,17.67
2019-05-07T07:20:02.438Z,15.80
2019-05-07T07:22:32.041Z,19.27
2019-05-07T07:25:02.578Z,21.23
2019-05-07T07:27:32.603Z,19.30
2019-05-07T07:30:09.732Z,17.73
2019-05-07T07:32:42.498Z,17.80
2019-05-07T07:35:13.534Z,17.60
2019-05-07T07:38:03.842Z,16.70
2019-05-07T07:40:43.417Z,18.80
2019-05-07T07:43:24.560Z,18.87
2019-05-07T07:45:53.795Z,18.00
2019-05-07T07:48:43.566Z,18.23
2019-05-07T07:51:13.768Z,17.47
2019-05-07T07:53:43.604Z,16.47
2019-05-07T07:56:47.886Z,17.03
2019-05-07T07:59:22.211Z,15.30
2019-05-07T08:02:04.993Z,15.57
2019-05-07T08:04:34.319Z,16.73
2019-05-07T08:07:03.612Z,18.53
2019-05-07T08:09:34.301Z,17.87
2019-05-07T08:12:04.727Z,16.73
2019-05-07T08:14:34.151Z,13.40
2019-05-07T08:17:05.271Z,13.97
2019-05-07T08:19:34.613Z,13.90
2019-05-07T08:22:03.915Z,14.67
2019-05-07T08:24:33.175Z,13.17
2019-05-07T08:27:02.664Z,12.40
2019-05-07T08:29:32.690Z,15.20
2019-05-07T08:32:04.268Z,15.00
2019-05-07T08:34:35.162Z,14.50
2019-05-07T08:37:04.483Z,15.73
2019-05-07T08:39:53.048Z,14.30
2019-05-07T08:42:22.903Z,13.63
2019-05-07T08:44:57.053Z,15.50
2019-05-07T08:47:36.846Z,14.93
2019-05-07T08:50:07.030Z,15.23
2019-05-07T08:52:36.372Z,15.77
2019-05-07T08:55:24.971Z,15.87
2019-05-07T08:57:54.399Z,15.90
2019-05-07T09:00:24.073Z,16.53
2019-05-07T09:02:53.330Z,16.10
2019-05-07T09:05:22.582Z,14.33
2019-05-07T09:07:51.834Z,13.27
2019-05-07T09:10:21.866Z,14.30
2019-05-07T09:13:12.468Z,14.87
2019-05-07T09:15:42.480Z,14.70
2019-05-07T09:18:12.475Z,15.80
2019-05-07T09:20:42.536Z,15.70
2019-05-07T09:23:12.290Z,14.23
2019-05-07T09:25:43.300Z,15.73
2019-05-07T09:28:12.634Z,15.30
2019-05-07T09:30:49.241Z,14.43
2019-05-07T09:33:32.347Z,13.13
2019-05-07T09:36:02.290Z,13.10
2019-05-07T09:38:32.748Z,13.60
2019-05-07T09:41:02.749Z,13.63
2019-05-07T09:43:32.615Z,13.70
2019-05-07T09:46:02.718Z,13.40
2019-05-07T09:48:33.872Z,13.93
2019-05-07T09:51:03.309Z,13.67
2019-05-07T09:53:52.060Z,13.60
2019-05-07T09:56:22.922Z,14.40
2019-05-07T09:58:53.057Z,13.70
2019-05-07T10:01:23.704Z,11.80
2019-05-07T10:03:53.220Z,10.17
2019-05-07T10:06:22.901Z,8.40
2019-05-07T10:08:52.472Z,10.33
2019-05-07T10:11:23.456Z,9.40
2019-05-07T10:13:54.451Z,9.10
2019-05-07T10:16:41.838Z,9.50
2019-05-07T10:19:11.414Z,10.17
2019-05-07T10:21:42.448Z,9.73
2019-05-07T10:24:12.956Z,11.23
2019-05-07T10:26:42.957Z,11.37
2019-05-07T10:29:12.687Z,11.70
2019-05-07T10:31:42.467Z,10.43
2019-05-07T10:34:12.498Z,10.73
2019-05-07T10:36:42.307Z,11.57
2019-05-07T10:39:12.929Z,10.70
2019-05-07T10:41:42.593Z,11.23
2019-05-07T10:44:13.099Z,13.07
2019-05-07T10:47:02.030Z,12.27
2019-05-07T10:49:33.395Z,11.97
2019-05-07T10:52:02.679Z,11.57
2019-05-07T10:54:31.922Z,11.00
2019-05-07T10:57:01.175Z,11.87
2019-05-07T10:59:49.816Z,12.47
2019-05-07T11:02:21.950Z,12.40
2019-05-07T11:04:53.203Z,12.17
2019-05-07T11:07:22.559Z,11.40
2019-05-07T11:09:52.641Z,11.60
2019-05-07T11:12:22.916Z,13.03
2019-05-07T11:14:52.415Z,11.40
2019-05-07T11:17:23.477Z,11.53
2019-05-07T11:19:52.738Z,13.97
2019-05-07T11:22:22.185Z,12.17
2019-05-07T11:24:52.223Z,13.27
2019-05-07T11:27:22.544Z,12.60
2019-05-07T11:29:52.072Z,12.10
2019-05-07T11:32:21.669Z,11.77
2019-05-07T11:34:52.821Z,13.07
2019-05-07T11:37:22.559Z,13.70
2019-05-07T11:39:52.362Z,13.37
2019-05-07T11:42:23.441Z,13.00
2019-05-07T11:44:55.070Z,12.30
2019-05-07T11:47:32.077Z,14.00
2019-05-07T11:50:09.174Z,12.87
2019-05-07T11:52:42.439Z,12.60
2019-05-07T11:55:12.034Z,11.63
2019-05-07T11:58:02.416Z,12.40
2019-05-07T12:00:33.622Z,11.60
2019-05-07T12:03:02.964Z,11.33
2019-05-07T12:05:33.260Z,10.90
2019-05-07T12:08:02.788Z,10.93
2019-05-07T12:10:32.824Z,10.80
2019-05-07T12:13:02.556Z,11.87
2019-05-07T12:15:32.572Z,12.03
2019-05-07T12:18:02.984Z,10.87
2019-05-07T12:20:32.626Z,12.20
2019-05-07T12:23:02.806Z,10.53
2019-05-07T12:25:32.419Z,11.23
2019-05-07T12:28:02.524Z,10.77
2019-05-07T12:30:51.699Z,11.77
2019-05-07T12:33:32.478Z,11.17
2019-05-07T12:36:02.119Z,10.73
2019-05-07T12:38:32.365Z,11.10
2019-05-07T12:41:03.494Z,10.90
2019-05-07T12:43:32.852Z,11.37
2019-05-07T12:46:02.837Z,11.40
2019-05-07T12:48:32.242Z,12.03
2019-05-07T12:51:01.842Z,10.80
2019-05-07T12:53:38.758Z,10.80
2019-05-07T12:56:08.082Z,10.40
2019-05-07T12:58:37.330Z,11.00
2019-05-07T13:01:42.632Z,9.47
2019-05-07T13:04:19.070Z,9.20
2019-05-07T13:07:02.498Z,8.17
2019-05-07T13:09:32.513Z,8.00
2019-05-07T13:12:03.008Z,7.53
2019-05-07T13:14:32.550Z,7.47
2019-05-07T13:17:02.775Z,9.37
2019-05-07T13:19:33.085Z,8.73
2019-05-07T13:22:02.571Z,8.23
2019-05-07T13:24:32.258Z,8.50
2019-05-07T13:27:03.308Z,7.57
2019-05-07T13:29:32.792Z,7.30
2019-05-07T13:32:03.588Z,8.27
2019-05-07T13:34:34.139Z,9.13
2019-05-07T13:37:17.339Z,9.63
2019-05-07T13:39:48.404Z,9.53
2019-05-07T13:42:35.884Z,10.10
2019-05-07T13:45:08.731Z,8.60
2019-05-07T13:47:39.698Z,10.03
2019-05-07T13:50:11.751Z,9.83
2019-05-07T13:52:43.125Z,10.57
2019-05-07T13:55:12.949Z,9.53
2019-05-07T13:57:42.607Z,9.77
2019-05-07T14:00:15.250Z,9.93
2019-05-07T14:02:44.604Z,10.27
2019-05-07T14:05:14.495Z,11.30
2019-05-07T14:07:44.334Z,12.90
2019-05-07T14:10:14.238Z,10.60
2019-05-07T14:12:43.567Z,12.00
2019-05-07T14:15:13.235Z,12.67
2019-05-07T14:17:42.546Z,11.17
2019-05-07T14:20:13.062Z,10.17
2019-05-07T14:22:42.699Z,10.03
2019-05-07T14:25:12.177Z,10.50
2019-05-07T14:27:42.844Z,9.60
2019-05-07T14:30:13.083Z,11.50
2019-05-07T14:32:53.547Z,11.73
2019-05-07T14:35:32.200Z,10.97
2019-05-07T14:38:15.318Z,11.10
2019-05-07T14:40:44.655Z,10.83
2019-05-07T14:43:18.631Z,10.43
2019-05-07T14:45:47.969Z,12.30
2019-05-07T14:48:17.315Z,11.20
2019-05-07T14:50:46.756Z,11.77
2019-05-07T14:53:16.098Z,12.07
2019-05-07T14:56:05.822Z,10.97
2019-05-07T14:58:35.293Z,12.83
2019-05-07T15:01:04.783Z,11.90
2019-05-07T15:03:34.234Z,12.10
2019-05-07T15:06:03.832Z,12.93
2019-05-07T15:08:33.223Z,13.10
2019-05-07T15:11:02.841Z,12.07
2019-05-07T15:13:32.470Z,11.73
2019-05-07T15:16:03.075Z,11.60
2019-05-07T15:18:49.143Z,12.27
2019-05-07T15:21:37.747Z,12.40
2019-05-07T15:24:07.337Z,12.60
2019-05-07T15:26:36.746Z,10.67
2019-05-07T15:29:07.780Z,11.70
2019-05-07T15:31:38.852Z,12.40
2019-05-07T15:34:08.242Z,12.20
2019-05-07T15:36:37.609Z,12.17
2019-05-07T15:39:07.017Z,12.13
2019-05-07T15:41:36.327Z,13.60
2019-05-07T15:44:05.861Z,11.80
2019-05-07T15:46:35.328Z,12.40
2019-05-07T15:49:04.801Z,12.40
2019-05-07T15:51:34.074Z,12.87
2019-05-07T15:54:05.007Z,11.83
2019-05-07T15:56:34.285Z,11.67
2019-05-07T15:59:03.693Z,10.33
2019-05-07T16:01:33.177Z,9.27
2019-05-07T16:04:02.865Z,11.00
2019-05-07T16:06:32.475Z,9.40
2019-05-07T16:09:02.490Z,10.27
2019-05-07T16:11:52.307Z,10.90
2019-05-07T16:14:26.439Z,9.70
2019-05-07T16:16:55.985Z,9.83
2019-05-07T16:19:44.602Z,10.20
2019-05-07T16:22:15.539Z,9.80
2019-05-07T16:24:44.871Z,10.57
2019-05-07T16:27:14.132Z,10.47
2019-05-07T16:29:43.469Z,9.80
2019-05-07T16:32:12.803Z,10.00
2019-05-07T16:34:42.916Z,9.57
2019-05-07T16:37:12.456Z,10.00
2019-05-07T16:39:42.121Z,10.90
2019-05-07T16:42:11.671Z,11.27
2019-05-07T16:44:41.701Z,10.97
2019-05-07T16:47:12.172Z,12.70
2019-05-07T16:49:42.441Z,11.63
2019-05-07T16:52:12.165Z,11.80
2019-05-07T16:54:42.652Z,13.23
2019-05-07T16:57:31.805Z,13.00
2019-05-07T17:00:02.868Z,13.63
2019-05-07T17:02:42.975Z,12.70
2019-05-07T17:05:15.836Z,13.03
2019-05-07T17:07:52.566Z,13.80
2019-05-07T17:10:22.359Z,13.50
2019-05-07T17:12:52.427Z,13.13
2019-05-07T17:15:22.796Z,12.80
2019-05-07T17:18:02.818Z,12.70
2019-05-07T17:20:33.000Z,12.30
2019-05-07T17:23:22.546Z,11.20
2019-05-07T17:25:52.788Z,12.00
2019-05-07T17:28:22.854Z,13.13
2019-05-07T17:30:52.575Z,11.57
2019-05-07T17:33:23.035Z,11.60
2019-05-07T17:35:52.687Z,12.13
2019-05-07T17:38:23.073Z,12.00
2019-05-07T17:40:52.662Z,12.00
2019-05-07T17:43:22.142Z,12.03
2019-05-07T17:45:52.266Z,10.90
2019-05-07T17:48:23.324Z,11.50
2019-05-07T17:50:59.361Z,11.07
2019-05-07T17:53:28.750Z,9.93
2019-05-07T17:55:58.214Z,10.20
2019-05-07T17:58:27.601Z,10.27
2019-05-07T18:00:58.593Z,11.47
2019-05-07T18:03:37.792Z,10.57
2019-05-07T18:06:26.523Z,10.80
2019-05-07T18:08:55.856Z,9.97
2019-05-07T18:11:25.179Z,10.70
2019-05-07T18:13:54.516Z,9.37
2019-05-07T18:16:25.486Z,10.63
2019-05-07T18:18:54.718Z,11.87
2019-05-07T18:21:24.011Z,10.80
2019-05-07T18:23:53.352Z,10.80
2019-05-07T18:26:29.976Z,9.50
2019-05-07T18:28:53.799Z,10.80
2019-05-07T18:31:24.929Z,10.17
2019-05-07T18:33:58.671Z,12.50
2019-05-07T18:36:27.905Z,9.50
2019-05-07T18:38:57.287Z,10.63
2019-05-07T18:41:26.547Z,10.87
2019-05-07T18:44:08.188Z,11.27
2019-05-07T18:46:26.930Z,11.27
2019-05-07T18:48:58.908Z,12.70
2019-05-07T18:51:27.240Z,13.13
2019-05-07T18:53:56.528Z,14.07
2019-05-07T18:56:25.784Z,13.70
2019-05-07T18:59:15.034Z,12.47
2019-05-07T19:01:44.683Z,13.97
2019-05-07T19:04:14.091Z,12.77
2019-05-07T19:06:43.349Z,13.00
2019-05-07T19:09:32.161Z,12.20
2019-05-07T19:12:01.666Z,12.60
2019-05-07T19:14:51.702Z,13.50
2019-05-07T19:17:21.912Z,14.10
2019-05-07T19:19:52.557Z,14.83
2019-05-07T19:22:22.277Z,13.23
2019-05-07T19:24:52.724Z,14.30
2019-05-07T19:27:22.183Z,12.90
2019-05-07T19:29:53.878Z,12.90
2019-05-07T19:32:26.816Z,12.50
2019-05-07T19:34:57.856Z,14.00
2019-05-07T19:37:27.102Z,13.80
2019-05-07T19:39:56.446Z,13.47
2019-05-07T19:42:25.806Z,11.73
2019-05-07T19:44:55.110Z,13.80
2019-05-07T19:47:36.396Z,12.47
2019-05-07T19:50:06.127Z,14.03
2019-05-07T19:52:35.463Z,15.07
2019-05-07T19:55:06.771Z,15.40
2019-05-07T19:57:43.686Z,15.27
2019-05-07T20:00:32.796Z,16.27
2019-05-07T20:03:03.403Z,16.07
2019-05-07T20:05:32.906Z,16.80
2019-05-07T20:08:04.611Z,15.83
2019-05-07T20:10:34.950Z,16.77
2019-05-07T20:13:04.287Z,17.33
2019-05-07T20:15:33.868Z,17.10
2019-05-07T20:18:03.338Z,18.27
2019-05-07T20:20:33.224Z,19.13
2019-05-07T20:23:02.757Z,17.47
2019-05-07T20:25:33.214Z,16.93
2019-05-07T20:28:02.732Z,16.27
2019-05-07T20:30:32.881Z,15.60
2019-05-07T20:33:03.074Z,15.67
2019-05-07T20:35:32.672Z,16.00
2019-05-07T20:38:02.933Z,16.90
2019-05-07T20:40:32.698Z,15.70
2019-05-07T20:43:03.768Z,16.80
2019-05-07T20:45:33.020Z,17.43
2019-05-07T20:48:14.837Z,17.17
2019-05-07T20:50:44.349Z,16.60
2019-05-07T20:53:13.845Z,15.67
2019-05-07T20:56:04.082Z,17.37
2019-05-07T20:58:33.407Z,17.50
2019-05-07T21:01:02.963Z,16.93
2019-05-07T21:03:32.574Z,17.47
2019-05-07T21:06:02.355Z,16.97
2019-05-07T21:08:32.185Z,18.20
2019-05-07T21:11:02.522Z,18.17
2019-05-07T21:13:34.866Z,18.27
2019-05-07T21:16:03.438Z,19.17
2019-05-07T21:18:32.870Z,18.00
2019-05-07T21:21:02.314Z,19.40
2019-05-07T21:23:32.571Z,19.27
2019-05-07T21:26:02.312Z,19.57
2019-05-07T21:28:52.851Z,17.77
2019-05-07T21:31:22.836Z,19.90
2019-05-07T21:33:52.546Z,19.80
2019-05-07T21:36:22.776Z,18.67
2019-05-07T21:38:52.614Z,18.70
2019-05-07T21:41:22.701Z,19.10
2019-05-07T21:43:52.809Z,18.53
2019-05-07T21:46:22.457Z,19.27
2019-05-07T21:48:53.613Z,19.63
2019-05-07T21:51:23.025Z,21.00
2019-05-07T21:56:52.261Z,18.57
2019-05-07T21:59:23.309Z,18.17
2019-05-07T22:01:54.282Z,19.10
2019-05-07T22:04:23.539Z,19.57
2019-05-07T22:07:12.330Z,19.90
2019-05-07T22:09:41.853Z,18.80
2019-05-07T22:12:32.006Z,18.80
2019-05-07T22:15:04.252Z,17.63
2019-05-07T22:17:32.467Z,18.50
2019-05-07T22:20:02.994Z,18.90
2019-05-07T22:22:32.449Z,17.87
2019-05-07T22:25:04.975Z,17.50
2019-05-07T22:27:32.844Z,18.60
2019-05-07T22:30:02.847Z,19.17
2019-05-07T22:32:36.463Z,17.73
2019-05-07T22:35:29.373Z,17.23
2019-05-07T22:37:58.631Z,17.63
2019-05-07T22:40:27.942Z,16.33
2019-05-07T22:42:57.178Z,16.40
2019-05-07T22:45:26.422Z,17.93
2019-05-07T22:47:55.692Z,17.80
2019-05-07T22:50:24.926Z,18.10
2019-05-07T22:53:13.578Z,18.17
2019-05-07T22:55:42.830Z,17.33
2019-05-07T22:58:21.837Z,18.33
2019-05-07T23:01:02.492Z,20.40
2019-05-07T23:03:32.291Z,17.40
2019-05-07T23:06:07.767Z,17.43
2019-05-07T23:08:38.407Z,18.40
2019-05-07T23:11:08.266Z,18.47
2019-05-07T23:13:37.636Z,18.73
2019-05-07T23:16:06.912Z,18.93
2019-05-07T23:18:36.224Z,19.70
2019-05-07T23:21:24.830Z,17.70
2019-05-07T23:23:54.080Z,16.67
2019-05-07T23:26:23.499Z,17.53
2019-05-07T23:28:52.884Z,19.30
2019-05-07T23:31:22.877Z,17.73
2019-05-07T23:33:52.501Z,18.67
2019-05-07T23:36:22.641Z,17.90
2019-05-07T23:38:52.299Z,17.47
2019-05-07T23:41:23.362Z,17.53
2019-05-07T23:44:12.439Z,17.20
2019-05-07T23:46:44.424Z,17.80
2019-05-07T23:49:12.641Z,18.53
2019-05-07T23:51:42.260Z,16.70
2019-05-07T23:54:12.319Z,17.87
2019-05-07T23:56:42.808Z,18.27
2019-05-07T23:59:14.770Z,18.33
